sensor_id;sensor_type;location;lat;lon;timestamp;temperature;humidity
23377;DHT22;14353;46.070;13.222;2022-07-06T00:01:44;32.90;41.30
23377;DHT22;14353;46.070;13.222;2022-07-06T00:04:13;32.90;41.40
23377;DHT22;14353;46.070;13.222;2022-07-06T00:06:39;32.90;41.40
23377;DHT22;14353;46.070;13.222;2022-07-06T00:09:06;32.90;41.40
23377;DHT22;14353;46.070;13.222;2022-07-06T00:11:34;32.90;42.00
23377;DHT22;14353;46.070;13.222;2022-07-06T00:14:01;32.90;41.40
23377;DHT22;14353;46.070;13.222;2022-07-06T00:16:26;32.90;41.40
23377;DHT22;14353;46.070;13.222;2022-07-06T00:18:52;32.80;41.30
23377;DHT22;14353;46.070;13.222;2022-07-06T00:21:18;32.80;41.30
23377;DHT22;14353;46.070;13.222;2022-07-06T00:23:44;32.80;41.30
23377;DHT22;14353;46.070;13.222;2022-07-06T00:26:10;32.80;41.30
23377;DHT22;14353;46.070;13.222;2022-07-06T00:28:36;32.80;41.30
23377;DHT22;14353;46.070;13.222;2022-07-06T00:31:02;32.80;41.30
23377;DHT22;14353;46.070;13.222;2022-07-06T00:33:31;32.80;41.30
23377;DHT22;14353;46.070;13.222;2022-07-06T00:35:57;32.80;41.30
23377;DHT22;14353;46.070;13.222;2022-07-06T00:38:26;32.80;41.30
23377;DHT22;14353;46.070;13.222;2022-07-06T00:40:52;32.80;41.30
23377;DHT22;14353;46.070;13.222;2022-07-06T00:43:18;32.80;41.40
23377;DHT22;14353;46.070;13.222;2022-07-06T00:45:44;32.80;41.30
23377;DHT22;14353;46.070;13.222;2022-07-06T00:48:10;32.80;41.40
23377;DHT22;14353;46.070;13.222;2022-07-06T00:50:36;32.80;41.40
23377;DHT22;14353;46.070;13.222;2022-07-06T00:53:04;32.80;41.40
23377;DHT22;14353;46.070;13.222;2022-07-06T00:55:33;32.80;41.40
23377;DHT22;14353;46.070;13.222;2022-07-06T00:58:01;32.80;41.50
23377;DHT22;14353;46.070;13.222;2022-07-06T01:00:29;32.80;41.40
23377;DHT22;14353;46.070;13.222;2022-07-06T01:02:55;32.80;41.40
23377;DHT22;14353;46.070;13.222;2022-07-06T01:05:21;32.80;41.50
23377;DHT22;14353;46.070;13.222;2022-07-06T01:07:49;32.80;41.40
23377;DHT22;14353;46.070;13.222;2022-07-06T01:10:16;32.80;41.40
23377;DHT22;14353;46.070;13.222;2022-07-06T01:12:44;32.80;41.40
23377;DHT22;14353;46.070;13.222;2022-07-06T01:15:16;32.70;41.40
23377;DHT22;14353;46.070;13.222;2022-07-06T01:17:42;32.80;41.50
23377;DHT22;14353;46.070;13.222;2022-07-06T01:20:22;32.70;41.40
23377;DHT22;14353;46.070;13.222;2022-07-06T01:22:50;32.70;41.40
23377;DHT22;14353;46.070;13.222;2022-07-06T01:25:18;32.70;41.40
23377;DHT22;14353;46.070;13.222;2022-07-06T01:27:44;32.70;41.40
23377;DHT22;14353;46.070;13.222;2022-07-06T01:30:15;32.70;41.40
23377;DHT22;14353;46.070;13.222;2022-07-06T01:32:42;32.70;41.40
23377;DHT22;14353;46.070;13.222;2022-07-06T01:35:11;32.70;41.40
23377;DHT22;14353;46.070;13.222;2022-07-06T01:37:38;32.70;41.40
23377;DHT22;14353;46.070;13.222;2022-07-06T01:40:06;32.70;41.40
23377;DHT22;14353;46.070;13.222;2022-07-06T01:42:32;32.70;41.40
23377;DHT22;14353;46.070;13.222;2022-07-06T01:44:58;32.70;41.40
23377;DHT22;14353;46.070;13.222;2022-07-06T01:47:24;32.70;41.40
23377;DHT22;14353;46.070;13.222;2022-07-06T01:49:50;32.70;41.40
23377;DHT22;14353;46.070;13.222;2022-07-06T01:52:16;32.70;41.40
23377;DHT22;14353;46.070;13.222;2022-07-06T01:54:42;32.70;41.40
23377;DHT22;14353;46.070;13.222;2022-07-06T01:57:08;32.70;41.40
23377;DHT22;14353;46.070;13.222;2022-07-06T01:59:34;32.70;41.40
23377;DHT22;14353;46.070;13.222;2022-07-06T02:01:59;32.70;41.40
23377;DHT22;14353;46.070;13.222;2022-07-06T02:04:25;32.70;41.40
23377;DHT22;14353;46.070;13.222;2022-07-06T02:06:51;32.70;42.10
23377;DHT22;14353;46.070;13.222;2022-07-06T02:09:17;32.70;41.40
23377;DHT22;14353;46.070;13.222;2022-07-06T02:11:43;32.70;41.40
23377;DHT22;14353;46.070;13.222;2022-07-06T02:14:09;32.70;41.40
23377;DHT22;14353;46.070;13.222;2022-07-06T02:16:35;32.70;41.40
23377;DHT22;14353;46.070;13.222;2022-07-06T02:19:01;32.70;41.40
23377;DHT22;14353;46.070;13.222;2022-07-06T02:21:30;32.60;41.40
23377;DHT22;14353;46.070;13.222;2022-07-06T02:23:56;32.60;41.40
23377;DHT22;14353;46.070;13.222;2022-07-06T02:26:22;32.60;41.40
23377;DHT22;14353;46.070;13.222;2022-07-06T02:28:47;32.60;41.40
23377;DHT22;14353;46.070;13.222;2022-07-06T02:31:14;32.60;41.40
23377;DHT22;14353;46.070;13.222;2022-07-06T02:33:42;32.60;41.40
23377;DHT22;14353;46.070;13.222;2022-07-06T02:36:08;32.60;41.40
23377;DHT22;14353;46.070;13.222;2022-07-06T02:38:34;32.60;41.40
23377;DHT22;14353;46.070;13.222;2022-07-06T02:41:00;32.60;41.40
23377;DHT22;14353;46.070;13.222;2022-07-06T02:43:26;32.60;41.40
23377;DHT22;14353;46.070;13.222;2022-07-06T02:45:51;32.60;41.40
23377;DHT22;14353;46.070;13.222;2022-07-06T02:48:17;32.60;41.40
23377;DHT22;14353;46.070;13.222;2022-07-06T02:50:47;32.60;41.40
23377;DHT22;14353;46.070;13.222;2022-07-06T02:53:13;32.60;41.40
23377;DHT22;14353;46.070;13.222;2022-07-06T02:55:38;32.60;41.40
23377;DHT22;14353;46.070;13.222;2022-07-06T02:58:04;32.60;41.40
23377;DHT22;14353;46.070;13.222;2022-07-06T03:00:30;32.50;41.40
23377;DHT22;14353;46.070;13.222;2022-07-06T03:02:59;32.50;41.40
23377;DHT22;14353;46.070;13.222;2022-07-06T03:05:25;32.50;41.40
23377;DHT22;14353;46.070;13.222;2022-07-06T03:07:51;32.50;41.30
23377;DHT22;14353;46.070;13.222;2022-07-06T03:10:17;32.50;41.30
23377;DHT22;14353;46.070;13.222;2022-07-06T03:12:42;32.50;41.40
23377;DHT22;14353;46.070;13.222;2022-07-06T03:15:09;32.50;41.40
23377;DHT22;14353;46.070;13.222;2022-07-06T03:17:36;32.50;41.40
23377;DHT22;14353;46.070;13.222;2022-07-06T03:20:06;32.50;41.40
23377;DHT22;14353;46.070;13.222;2022-07-06T03:22:32;32.50;41.40
23377;DHT22;14353;46.070;13.222;2022-07-06T03:24:58;32.50;41.40
23377;DHT22;14353;46.070;13.222;2022-07-06T03:27:24;32.50;41.40
23377;DHT22;14353;46.070;13.222;2022-07-06T03:29:49;32.50;41.40
23377;DHT22;14353;46.070;13.222;2022-07-06T03:32:15;32.50;41.30
23377;DHT22;14353;46.070;13.222;2022-07-06T03:34:41;32.50;41.40
23377;DHT22;14353;46.070;13.222;2022-07-06T03:37:07;32.50;41.30
23377;DHT22;14353;46.070;13.222;2022-07-06T03:39:33;32.50;41.40
23377;DHT22;14353;46.070;13.222;2022-07-06T03:41:59;32.50;41.40
23377;DHT22;14353;46.070;13.222;2022-07-06T03:44:26;32.50;41.40
23377;DHT22;14353;46.070;13.222;2022-07-06T03:46:55;32.50;41.40
23377;DHT22;14353;46.070;13.222;2022-07-06T03:49:23;32.50;41.40
23377;DHT22;14353;46.070;13.222;2022-07-06T03:51:52;32.50;41.40
23377;DHT22;14353;46.070;13.222;2022-07-06T03:54:18;32.50;41.40
23377;DHT22;14353;46.070;13.222;2022-07-06T03:56:44;32.50;41.30
23377;DHT22;14353;46.070;13.222;2022-07-06T03:59:10;32.50;41.30
23377;DHT22;14353;46.070;13.222;2022-07-06T04:01:36;32.50;41.40
23377;DHT22;14353;46.070;13.222;2022-07-06T04:04:01;32.40;41.20
23377;DHT22;14353;46.070;13.222;2022-07-06T04:06:27;32.50;41.30
23377;DHT22;14353;46.070;13.222;2022-07-06T04:08:53;32.40;41.20
23377;DHT22;14353;46.070;13.222;2022-07-06T04:11:19;32.40;41.20
23377;DHT22;14353;46.070;13.222;2022-07-06T04:13:45;32.40;41.20
23377;DHT22;14353;46.070;13.222;2022-07-06T04:16:11;32.40;41.20
23377;DHT22;14353;46.070;13.222;2022-07-06T04:18:37;32.40;41.20
23377;DHT22;14353;46.070;13.222;2022-07-06T04:21:03;32.40;41.20
23377;DHT22;14353;46.070;13.222;2022-07-06T04:23:29;32.50;41.20
23377;DHT22;14353;46.070;13.222;2022-07-06T04:25:54;32.40;41.20
23377;DHT22;14353;46.070;13.222;2022-07-06T04:28:23;32.50;41.20
23377;DHT22;14353;46.070;13.222;2022-07-06T04:30:49;32.50;41.20
23377;DHT22;14353;46.070;13.222;2022-07-06T04:33:15;32.50;41.10
23377;DHT22;14353;46.070;13.222;2022-07-06T04:35:41;32.50;41.10
23377;DHT22;14353;46.070;13.222;2022-07-06T04:38:07;32.50;41.10
23377;DHT22;14353;46.070;13.222;2022-07-06T04:40:33;32.50;41.10
23377;DHT22;14353;46.070;13.222;2022-07-06T04:42:59;32.50;41.10
23377;DHT22;14353;46.070;13.222;2022-07-06T04:45:25;32.50;41.10
23377;DHT22;14353;46.070;13.222;2022-07-06T04:47:51;32.50;41.00
23377;DHT22;14353;46.070;13.222;2022-07-06T04:50:17;32.50;41.00
23377;DHT22;14353;46.070;13.222;2022-07-06T04:52:43;32.50;40.90
23377;DHT22;14353;46.070;13.222;2022-07-06T04:55:09;32.50;41.00
23377;DHT22;14353;46.070;13.222;2022-07-06T04:57:35;32.50;40.90
23377;DHT22;14353;46.070;13.222;2022-07-06T05:00:03;32.50;40.90
23377;DHT22;14353;46.070;13.222;2022-07-06T05:02:29;32.50;40.90
23377;DHT22;14353;46.070;13.222;2022-07-06T05:04:55;32.50;40.90
23377;DHT22;14353;46.070;13.222;2022-07-06T05:07:20;32.50;40.80
23377;DHT22;14353;46.070;13.222;2022-07-06T05:09:46;32.50;40.80
23377;DHT22;14353;46.070;13.222;2022-07-06T05:12:12;32.50;40.80
23377;DHT22;14353;46.070;13.222;2022-07-06T05:14:38;32.50;40.80
23377;DHT22;14353;46.070;13.222;2022-07-06T05:17:04;32.50;40.70
23377;DHT22;14353;46.070;13.222;2022-07-06T05:19:30;32.50;41.40
23377;DHT22;14353;46.070;13.222;2022-07-06T05:21:55;32.50;40.70
23377;DHT22;14353;46.070;13.222;2022-07-06T05:24:21;32.50;40.70
23377;DHT22;14353;46.070;13.222;2022-07-06T05:26:47;32.60;40.70
23377;DHT22;14353;46.070;13.222;2022-07-06T05:29:13;32.60;40.70
23377;DHT22;14353;46.070;13.222;2022-07-06T05:31:39;32.50;40.60
23377;DHT22;14353;46.070;13.222;2022-07-06T05:34:05;32.60;40.70
23377;DHT22;14353;46.070;13.222;2022-07-06T05:36:31;32.60;40.60
23377;DHT22;14353;46.070;13.222;2022-07-06T05:38:57;32.60;40.60
23377;DHT22;14353;46.070;13.222;2022-07-06T05:41:22;32.60;40.50
23377;DHT22;14353;46.070;13.222;2022-07-06T05:43:49;32.60;40.50
23377;DHT22;14353;46.070;13.222;2022-07-06T05:46:14;32.60;40.50
23377;DHT22;14353;46.070;13.222;2022-07-06T05:48:40;32.60;40.50
23377;DHT22;14353;46.070;13.222;2022-07-06T05:51:25;32.60;40.50
23377;DHT22;14353;46.070;13.222;2022-07-06T05:53:51;32.60;40.40
23377;DHT22;14353;46.070;13.222;2022-07-06T05:56:17;32.60;40.40
23377;DHT22;14353;46.070;13.222;2022-07-06T05:58:43;32.60;40.40
23377;DHT22;14353;46.070;13.222;2022-07-06T06:01:09;32.60;40.70
23377;DHT22;14353;46.070;13.222;2022-07-06T06:03:38;32.60;40.30
23377;DHT22;14353;46.070;13.222;2022-07-06T06:06:04;32.70;40.40
23377;DHT22;14353;46.070;13.222;2022-07-06T06:08:30;32.70;40.30
23377;DHT22;14353;46.070;13.222;2022-07-06T06:10:56;32.70;40.30
23377;DHT22;14353;46.070;13.222;2022-07-06T06:13:22;32.70;40.30
23377;DHT22;14353;46.070;13.222;2022-07-06T06:15:48;32.70;40.30
23377;DHT22;14353;46.070;13.222;2022-07-06T06:18:15;32.70;40.20
23377;DHT22;14353;46.070;13.222;2022-07-06T06:20:45;32.70;40.20
23377;DHT22;14353;46.070;13.222;2022-07-06T06:23:11;32.70;40.20
23377;DHT22;14353;46.070;13.222;2022-07-06T06:25:39;32.70;40.10
23377;DHT22;14353;46.070;13.222;2022-07-06T06:28:08;32.70;40.10
23377;DHT22;14353;46.070;13.222;2022-07-06T06:30:38;32.70;40.00
23377;DHT22;14353;46.070;13.222;2022-07-06T06:33:17;32.70;40.00
23377;DHT22;14353;46.070;13.222;2022-07-06T06:35:51;32.70;40.00
23377;DHT22;14353;46.070;13.222;2022-07-06T06:38:19;32.70;40.00
23377;DHT22;14353;46.070;13.222;2022-07-06T06:40:46;32.80;40.10
23377;DHT22;14353;46.070;13.222;2022-07-06T06:43:12;32.70;39.90
23377;DHT22;14353;46.070;13.222;2022-07-06T06:45:38;32.70;39.90
23377;DHT22;14353;46.070;13.222;2022-07-06T06:48:04;32.80;39.90
23377;DHT22;14353;46.070;13.222;2022-07-06T06:50:31;32.80;39.90
23377;DHT22;14353;46.070;13.222;2022-07-06T06:52:56;32.80;39.90
23377;DHT22;14353;46.070;13.222;2022-07-06T06:55:23;32.80;39.80
23377;DHT22;14353;46.070;13.222;2022-07-06T06:57:49;32.80;39.80
23377;DHT22;14353;46.070;13.222;2022-07-06T07:00:15;32.80;39.80
23377;DHT22;14353;46.070;13.222;2022-07-06T07:02:41;32.80;39.70
23377;DHT22;14353;46.070;13.222;2022-07-06T07:05:08;32.80;39.70
23377;DHT22;14353;46.070;13.222;2022-07-06T07:07:34;32.80;39.60
23377;DHT22;14353;46.070;13.222;2022-07-06T07:10:00;32.80;39.70
23377;DHT22;14353;46.070;13.222;2022-07-06T07:12:26;32.80;39.60
23377;DHT22;14353;46.070;13.222;2022-07-06T07:14:53;32.90;39.60
23377;DHT22;14353;46.070;13.222;2022-07-06T07:17:19;32.90;39.60
23377;DHT22;14353;46.070;13.222;2022-07-06T07:19:45;32.90;39.60
23377;DHT22;14353;46.070;13.222;2022-07-06T07:22:11;32.90;39.50
23377;DHT22;14353;46.070;13.222;2022-07-06T07:24:37;32.90;39.50
23377;DHT22;14353;46.070;13.222;2022-07-06T07:27:04;32.90;39.50
23377;DHT22;14353;46.070;13.222;2022-07-06T07:29:31;32.90;39.50
23377;DHT22;14353;46.070;13.222;2022-07-06T07:31:57;32.90;39.40
23377;DHT22;14353;46.070;13.222;2022-07-06T07:34:22;32.90;39.40
23377;DHT22;14353;46.070;13.222;2022-07-06T07:36:51;32.90;39.40
23377;DHT22;14353;46.070;13.222;2022-07-06T07:39:17;32.90;39.30
23377;DHT22;14353;46.070;13.222;2022-07-06T07:41:44;33.00;39.30
23377;DHT22;14353;46.070;13.222;2022-07-06T07:44:09;32.90;39.20
23377;DHT22;14353;46.070;13.222;2022-07-06T07:46:36;32.90;39.20
23377;DHT22;14353;46.070;13.222;2022-07-06T07:49:02;32.90;39.10
23377;DHT22;14353;46.070;13.222;2022-07-06T07:51:27;32.90;39.10
23377;DHT22;14353;46.070;13.222;2022-07-06T07:53:54;32.90;39.10
23377;DHT22;14353;46.070;13.222;2022-07-06T07:56:19;33.00;39.10
23377;DHT22;14353;46.070;13.222;2022-07-06T07:58:45;33.00;39.10
23377;DHT22;14353;46.070;13.222;2022-07-06T08:01:16;33.00;39.10
23377;DHT22;14353;46.070;13.222;2022-07-06T08:03:42;33.00;39.00
23377;DHT22;14353;46.070;13.222;2022-07-06T08:06:08;33.00;39.00
23377;DHT22;14353;46.070;13.222;2022-07-06T08:08:34;33.00;39.00
23377;DHT22;14353;46.070;13.222;2022-07-06T08:11:02;33.00;39.00
23377;DHT22;14353;46.070;13.222;2022-07-06T08:13:28;33.00;39.00
23377;DHT22;14353;46.070;13.222;2022-07-06T08:15:54;33.00;38.90
23377;DHT22;14353;46.070;13.222;2022-07-06T08:18:20;33.00;38.90
23377;DHT22;14353;46.070;13.222;2022-07-06T08:20:46;33.00;38.70
23377;DHT22;14353;46.070;13.222;2022-07-06T08:23:12;33.00;38.70
23377;DHT22;14353;46.070;13.222;2022-07-06T08:25:38;33.00;38.70
23377;DHT22;14353;46.070;13.222;2022-07-06T08:28:04;33.10;38.70
23377;DHT22;14353;46.070;13.222;2022-07-06T08:30:30;33.10;38.60
23377;DHT22;14353;46.070;13.222;2022-07-06T08:33:00;33.10;38.60
23377;DHT22;14353;46.070;13.222;2022-07-06T08:35:27;33.10;38.50
23377;DHT22;14353;46.070;13.222;2022-07-06T08:37:53;33.10;38.30
23377;DHT22;14353;46.070;13.222;2022-07-06T08:40:19;33.10;38.20
23377;DHT22;14353;46.070;13.222;2022-07-06T08:42:46;33.10;38.10
23377;DHT22;14353;46.070;13.222;2022-07-06T08:45:13;33.10;38.10
23377;DHT22;14353;46.070;13.222;2022-07-06T08:47:41;33.10;38.10
23377;DHT22;14353;46.070;13.222;2022-07-06T08:50:08;33.10;38.10
23377;DHT22;14353;46.070;13.222;2022-07-06T08:52:35;33.10;37.90
23377;DHT22;14353;46.070;13.222;2022-07-06T08:55:03;33.10;37.90
23377;DHT22;14353;46.070;13.222;2022-07-06T08:57:29;33.10;38.00
23377;DHT22;14353;46.070;13.222;2022-07-06T08:59:55;33.10;38.10
23377;DHT22;14353;46.070;13.222;2022-07-06T09:02:24;33.10;38.10
23377;DHT22;14353;46.070;13.222;2022-07-06T09:04:56;33.20;38.20
23377;DHT22;14353;46.070;13.222;2022-07-06T09:07:31;33.20;38.20
23377;DHT22;14353;46.070;13.222;2022-07-06T09:09:58;33.20;38.10
23377;DHT22;14353;46.070;13.222;2022-07-06T09:12:27;33.20;38.10
23377;DHT22;14353;46.070;13.222;2022-07-06T09:14:57;33.20;38.10
23377;DHT22;14353;46.070;13.222;2022-07-06T09:17:29;33.20;37.90
23377;DHT22;14353;46.070;13.222;2022-07-06T09:19:56;33.20;37.90
23377;DHT22;14353;46.070;13.222;2022-07-06T09:22:32;33.20;37.90
23377;DHT22;14353;46.070;13.222;2022-07-06T09:25:05;33.30;37.90
23377;DHT22;14353;46.070;13.222;2022-07-06T09:27:31;33.20;37.90
23377;DHT22;14353;46.070;13.222;2022-07-06T09:30:00;33.30;37.90
23377;DHT22;14353;46.070;13.222;2022-07-06T09:32:29;33.30;37.90
23377;DHT22;14353;46.070;13.222;2022-07-06T09:34:55;33.30;37.80
23377;DHT22;14353;46.070;13.222;2022-07-06T09:37:22;33.30;37.70
23377;DHT22;14353;46.070;13.222;2022-07-06T09:39:51;33.30;37.80
23377;DHT22;14353;46.070;13.222;2022-07-06T09:42:24;33.30;37.70
23377;DHT22;14353;46.070;13.222;2022-07-06T09:44:51;33.30;37.70
23377;DHT22;14353;46.070;13.222;2022-07-06T09:47:18;33.30;37.80
23377;DHT22;14353;46.070;13.222;2022-07-06T09:49:45;33.30;37.70
23377;DHT22;14353;46.070;13.222;2022-07-06T09:52:13;33.30;37.70
23377;DHT22;14353;46.070;13.222;2022-07-06T09:54:40;33.30;37.60
23377;DHT22;14353;46.070;13.222;2022-07-06T09:57:06;33.30;37.60
23377;DHT22;14353;46.070;13.222;2022-07-06T09:59:33;33.30;37.60
23377;DHT22;14353;46.070;13.222;2022-07-06T10:02:02;33.30;37.60
23377;DHT22;14353;46.070;13.222;2022-07-06T10:04:29;33.40;37.70
23377;DHT22;14353;46.070;13.222;2022-07-06T10:06:56;33.40;37.60
23377;DHT22;14353;46.070;13.222;2022-07-06T10:09:26;33.40;37.50
23377;DHT22;14353;46.070;13.222;2022-07-06T10:11:55;33.40;37.40
23377;DHT22;14353;46.070;13.222;2022-07-06T10:14:32;33.40;37.40
23377;DHT22;14353;46.070;13.222;2022-07-06T10:16:59;33.40;37.30
23377;DHT22;14353;46.070;13.222;2022-07-06T10:19:27;33.40;37.40
23377;DHT22;14353;46.070;13.222;2022-07-06T10:21:54;33.40;37.40
23377;DHT22;14353;46.070;13.222;2022-07-06T10:24:25;33.40;37.40
23377;DHT22;14353;46.070;13.222;2022-07-06T10:26:53;33.50;37.50
23377;DHT22;14353;46.070;13.222;2022-07-06T10:29:19;33.50;37.50
23377;DHT22;14353;46.070;13.222;2022-07-06T10:31:48;33.50;37.50
23377;DHT22;14353;46.070;13.222;2022-07-06T10:34:16;33.50;37.50
23377;DHT22;14353;46.070;13.222;2022-07-06T10:36:44;33.50;37.40
23377;DHT22;14353;46.070;13.222;2022-07-06T10:39:13;33.50;37.50
23377;DHT22;14353;46.070;13.222;2022-07-06T10:41:58;33.50;37.50
23377;DHT22;14353;46.070;13.222;2022-07-06T10:44:27;33.50;37.40
23377;DHT22;14353;46.070;13.222;2022-07-06T10:46:57;33.50;37.40
23377;DHT22;14353;46.070;13.222;2022-07-06T10:49:25;33.50;37.50
23377;DHT22;14353;46.070;13.222;2022-07-06T10:51:53;33.50;37.40
23377;DHT22;14353;46.070;13.222;2022-07-06T10:54:23;33.50;37.50
23377;DHT22;14353;46.070;13.222;2022-07-06T10:56:53;33.50;37.30
23377;DHT22;14353;46.070;13.222;2022-07-06T10:59:21;33.60;37.40
23377;DHT22;14353;46.070;13.222;2022-07-06T11:02:18;33.60;37.40
23377;DHT22;14353;46.070;13.222;2022-07-06T11:04:45;33.60;37.40
23377;DHT22;14353;46.070;13.222;2022-07-06T11:07:14;33.60;37.40
23377;DHT22;14353;46.070;13.222;2022-07-06T11:09:41;33.60;37.40
23377;DHT22;14353;46.070;13.222;2022-07-06T11:14:40;33.60;37.40
23377;DHT22;14353;46.070;13.222;2022-07-06T11:17:10;33.60;37.40
23377;DHT22;14353;46.070;13.222;2022-07-06T11:19:37;33.60;37.40
23377;DHT22;14353;46.070;13.222;2022-07-06T11:22:08;33.60;37.40
23377;DHT22;14353;46.070;13.222;2022-07-06T11:24:37;33.60;37.30
23377;DHT22;14353;46.070;13.222;2022-07-06T11:27:04;33.60;37.30
23377;DHT22;14353;46.070;13.222;2022-07-06T11:29:33;33.60;37.30
23377;DHT22;14353;46.070;13.222;2022-07-06T11:32:05;33.60;37.30
23377;DHT22;14353;46.070;13.222;2022-07-06T11:34:37;33.70;37.90
23377;DHT22;14353;46.070;13.222;2022-07-06T11:37:05;33.70;37.20
23377;DHT22;14353;46.070;13.222;2022-07-06T11:39:36;33.70;37.20
23377;DHT22;14353;46.070;13.222;2022-07-06T11:42:05;33.70;37.20
23377;DHT22;14353;46.070;13.222;2022-07-06T11:44:31;33.70;37.10
23377;DHT22;14353;46.070;13.222;2022-07-06T11:46:58;33.70;37.00
23377;DHT22;14353;46.070;13.222;2022-07-06T11:49:28;33.70;37.00
23377;DHT22;14353;46.070;13.222;2022-07-06T11:51:54;33.80;37.10
23377;DHT22;14353;46.070;13.222;2022-07-06T11:54:21;33.80;37.00
23377;DHT22;14353;46.070;13.222;2022-07-06T11:56:55;33.80;37.00
23377;DHT22;14353;46.070;13.222;2022-07-06T11:59:23;33.80;37.00
23377;DHT22;14353;46.070;13.222;2022-07-06T12:04:25;33.80;36.90
23377;DHT22;14353;46.070;13.222;2022-07-06T12:06:51;33.80;36.80
23377;DHT22;14353;46.070;13.222;2022-07-06T12:09:20;33.90;36.80
23377;DHT22;14353;46.070;13.222;2022-07-06T12:11:47;33.90;36.80
23377;DHT22;14353;46.070;13.222;2022-07-06T12:14:16;33.90;36.80
23377;DHT22;14353;46.070;13.222;2022-07-06T12:16:43;33.90;36.70
23377;DHT22;14353;46.070;13.222;2022-07-06T12:19:09;33.90;36.70
23377;DHT22;14353;46.070;13.222;2022-07-06T12:21:48;33.90;36.70
23377;DHT22;14353;46.070;13.222;2022-07-06T12:24:22;34.00;36.60
23377;DHT22;14353;46.070;13.222;2022-07-06T12:26:50;34.00;36.60
23377;DHT22;14353;46.070;13.222;2022-07-06T12:29:16;33.90;36.50
23377;DHT22;14353;46.070;13.222;2022-07-06T12:31:54;34.00;36.50
23377;DHT22;14353;46.070;13.222;2022-07-06T12:34:22;34.00;36.50
23377;DHT22;14353;46.070;13.222;2022-07-06T12:36:49;34.10;36.50
23377;DHT22;14353;46.070;13.222;2022-07-06T12:39:19;34.10;36.40
23377;DHT22;14353;46.070;13.222;2022-07-06T12:44:13;34.10;36.30
23377;DHT22;14353;46.070;13.222;2022-07-06T12:46:40;34.10;36.20
23377;DHT22;14353;46.070;13.222;2022-07-06T12:49:16;34.10;36.20
23377;DHT22;14353;46.070;13.222;2022-07-06T12:51:53;34.10;36.30
23377;DHT22;14353;46.070;13.222;2022-07-06T12:54:20;34.10;36.10
23377;DHT22;14353;46.070;13.222;2022-07-06T12:59:33;34.20;36.10
23377;DHT22;14353;46.070;13.222;2022-07-06T13:02:00;34.20;36.00
23377;DHT22;14353;46.070;13.222;2022-07-06T13:04:28;34.20;36.00
23377;DHT22;14353;46.070;13.222;2022-07-06T13:06:55;34.20;36.00
23377;DHT22;14353;46.070;13.222;2022-07-06T13:09:22;34.20;35.90
23377;DHT22;14353;46.070;13.222;2022-07-06T13:11:48;34.30;35.90
23377;DHT22;14353;46.070;13.222;2022-07-06T13:14:15;34.30;35.90
23377;DHT22;14353;46.070;13.222;2022-07-06T13:16:42;34.30;35.80
23377;DHT22;14353;46.070;13.222;2022-07-06T13:19:08;34.30;35.80
23377;DHT22;14353;46.070;13.222;2022-07-06T13:21:35;34.30;35.80
23377;DHT22;14353;46.070;13.222;2022-07-06T13:24:01;34.40;35.90
23377;DHT22;14353;46.070;13.222;2022-07-06T13:26:28;34.30;35.70
23377;DHT22;14353;46.070;13.222;2022-07-06T13:28:59;34.40;35.70
23377;DHT22;14353;46.070;13.222;2022-07-06T13:31:26;34.40;35.70
23377;DHT22;14353;46.070;13.222;2022-07-06T13:33:52;34.40;35.60
23377;DHT22;14353;46.070;13.222;2022-07-06T13:36:21;34.40;35.60
23377;DHT22;14353;46.070;13.222;2022-07-06T13:38:47;34.40;35.50
23377;DHT22;14353;46.070;13.222;2022-07-06T13:41:13;34.40;35.50
23377;DHT22;14353;46.070;13.222;2022-07-06T13:43:39;34.40;35.50
23377;DHT22;14353;46.070;13.222;2022-07-06T13:46:06;34.50;35.50
23377;DHT22;14353;46.070;13.222;2022-07-06T13:48:34;34.50;35.50
23377;DHT22;14353;46.070;13.222;2022-07-06T13:51:02;34.50;35.50
23377;DHT22;14353;46.070;13.222;2022-07-06T13:53:28;34.50;35.40
23377;DHT22;14353;46.070;13.222;2022-07-06T13:55:56;34.50;35.40
23377;DHT22;14353;46.070;13.222;2022-07-06T13:58:23;34.50;35.30
23377;DHT22;14353;46.070;13.222;2022-07-06T14:00:48;34.50;35.30
23377;DHT22;14353;46.070;13.222;2022-07-06T14:03:14;34.50;35.30
23377;DHT22;14353;46.070;13.222;2022-07-06T14:05:40;34.60;35.30
23377;DHT22;14353;46.070;13.222;2022-07-06T14:08:07;34.60;35.40
23377;DHT22;14353;46.070;13.222;2022-07-06T14:10:33;34.60;35.30
23377;DHT22;14353;46.070;13.222;2022-07-06T14:13:00;34.60;35.30
23377;DHT22;14353;46.070;13.222;2022-07-06T14:15:26;34.60;35.30
23377;DHT22;14353;46.070;13.222;2022-07-06T14:17:52;34.60;35.20
23377;DHT22;14353;46.070;13.222;2022-07-06T14:20:18;34.70;35.20
23377;DHT22;14353;46.070;13.222;2022-07-06T14:22:46;34.70;35.20
23377;DHT22;14353;46.070;13.222;2022-07-06T14:25:12;34.70;35.10
23377;DHT22;14353;46.070;13.222;2022-07-06T14:27:38;34.70;35.10
23377;DHT22;14353;46.070;13.222;2022-07-06T14:30:06;34.70;35.10
23377;DHT22;14353;46.070;13.222;2022-07-06T14:32:32;34.80;35.20
23377;DHT22;14353;46.070;13.222;2022-07-06T14:34:58;34.80;35.00
23377;DHT22;14353;46.070;13.222;2022-07-06T14:37:24;34.80;35.00
23377;DHT22;14353;46.070;13.222;2022-07-06T14:39:50;34.80;35.00
23377;DHT22;14353;46.070;13.222;2022-07-06T14:42:16;34.80;35.00
23377;DHT22;14353;46.070;13.222;2022-07-06T14:44:42;34.80;35.10
23377;DHT22;14353;46.070;13.222;2022-07-06T14:47:08;34.90;35.10
23377;DHT22;14353;46.070;13.222;2022-07-06T14:49:34;34.80;34.90
23377;DHT22;14353;46.070;13.222;2022-07-06T14:52:00;34.90;34.90
23377;DHT22;14353;46.070;13.222;2022-07-06T14:54:26;34.90;35.00
23377;DHT22;14353;46.070;13.222;2022-07-06T14:56:52;34.90;34.90
23377;DHT22;14353;46.070;13.222;2022-07-06T14:59:18;34.90;34.90
23377;DHT22;14353;46.070;13.222;2022-07-06T15:01:45;34.90;35.00
23377;DHT22;14353;46.070;13.222;2022-07-06T15:04:13;34.90;35.00
23377;DHT22;14353;46.070;13.222;2022-07-06T15:06:39;35.00;35.00
23377;DHT22;14353;46.070;13.222;2022-07-06T15:09:05;34.90;34.90
23377;DHT22;14353;46.070;13.222;2022-07-06T15:11:32;34.90;34.90
23377;DHT22;14353;46.070;13.222;2022-07-06T15:13:57;35.00;35.00
23377;DHT22;14353;46.070;13.222;2022-07-06T15:16:23;34.90;35.60
23377;DHT22;14353;46.070;13.222;2022-07-06T15:18:50;35.00;35.00
23377;DHT22;14353;46.070;13.222;2022-07-06T15:21:17;35.00;35.00
23377;DHT22;14353;46.070;13.222;2022-07-06T15:23:43;35.00;35.00
23377;DHT22;14353;46.070;13.222;2022-07-06T15:26:08;35.00;35.00